sensor_id;sensor_type;location;lat;lon;timestamp;P1;P4;P2;P0;N10;N4;N25;N1;N05;TS
71550;SPS30;59367;48.414;9.872;2023-03-23T00:00:39;5.595695972;;5.595695972;;;;;;;
71550;SPS30;59367;48.414;9.872;2023-03-23T00:01:43;5.996683598;;5.996683598;;;;;;;
71550;SPS30;59367;48.414;9.872;2023-03-23T00:02:48;6.147480011;;6.147480011;;;;;;;
71550;SPS30;59367;48.414;9.872;2023-03-23T00:03:53;5.817485332;;5.817485332;;;;;;;
71550;SPS30;59367;48.414;9.872;2023-03-23T00:04:59;5.579953671;;5.579953671;;;;;;;
71550;SPS30;59367;48.414;9.872;2023-03-23T00:06:04;5.113718033;;5.113718033;;;;;;;
71550;SPS30;59367;48.414;9.872;2023-03-23T00:07:10;5.277373791;;5.277373791;;;;;;;
71550;SPS30;59367;48.414;9.872;2023-03-23T00:08:14;5.365914822;;5.365894318;;;;;;;
71550;SPS30;59367;48.414;9.872;2023-03-23T00:09:19;5.340799332;;5.340799332;;;;;;;
71550;SPS30;59367;48.414;9.872;2023-03-23T00:10:24;5.318685055;;5.318685055;;;;;;;
71550;SPS30;59367;48.414;9.872;2023-03-23T00:11:29;5.456362724;;5.456362724;;;;;;;
71550;SPS30;59367;48.414;9.872;2023-03-23T00:12:34;5.053685188;;5.053685188;;;;;;;
71550;SPS30;59367;48.414;9.872;2023-03-23T00:13:38;5.757509232;;5.757509232;;;;;;;
71550;SPS30;59367;48.414;9.872;2023-03-23T00:14:44;5.002305031;;5.002305031;;;;;;;
71550;SPS30;59367;48.414;9.872;2023-03-23T00:15:48;5.980885983;;5.980885983;;;;;;;
71550;SPS30;59367;48.414;9.872;2023-03-23T00:16:54;5.626068592;;5.626068592;;;;;;;
71550;SPS30;59367;48.414;9.872;2023-03-23T00:17:58;5.415262222;;5.415262222;;;;;;;
71550;SPS30;59367;48.414;9.872;2023-03-23T00:19:04;5.809932232;;5.809932232;;;;;;;
71550;SPS30;59367;48.414;9.872;2023-03-23T00:20:10;5.381271362;;5.381271362;;;;;;;
71550;SPS30;59367;48.414;9.872;2023-03-23T00:21:15;5.022697926;;5.022697926;;;;;;;
71550;SPS30;59367;48.414;9.872;2023-03-23T00:22:20;5.300389767;;5.300389767;;;;;;;
71550;SPS30;59367;48.414;9.872;2023-03-23T00:23:25;5.762072086;;5.762072086;;;;;;;
71550;SPS30;59367;48.414;9.872;2023-03-23T00:24:30;5.523463726;;5.523463726;;;;;;;
71550;SPS30;59367;48.414;9.872;2023-03-23T00:25:35;5.280831337;;5.280831337;;;;;;;
71550;SPS30;59367;48.414;9.872;2023-03-23T00:26:40;5.696068764;;5.696068764;;;;;;;
71550;SPS30;59367;48.414;9.872;2023-03-23T00:27:45;4.916039467;;4.916039467;;;;;;;
71550;SPS30;59367;48.414;9.872;2023-03-23T00:28:50;5.463952541;;5.463945389;;;;;;;
71550;SPS30;59367;48.414;9.872;2023-03-23T00:29:54;5.302224159;;5.302224159;;;;;;;
71550;SPS30;59367;48.414;9.872;2023-03-23T00:31:00;4.65780735;;4.65780735;;;;;;;
71550;SPS30;59367;48.414;9.872;2023-03-23T00:32:06;5.838544369;;5.838544369;;;;;;;
71550;SPS30;59367;48.414;9.872;2023-03-23T00:33:11;4.795437336;;4.795437336;;;;;;;
71550;SPS30;59367;48.414;9.872;2023-03-23T00:34:17;5.860398769;;5.860398769;;;;;;;
71550;SPS30;59367;48.414;9.872;2023-03-23T00:35:23;6.43838644;;6.43838644;;;;;;;
71550;SPS30;59367;48.414;9.872;2023-03-23T00:36:28;6.044966698;;6.044966698;;;;;;;
71550;SPS30;59367;48.414;9.872;2023-03-23T00:37:33;6.338496208;;6.338496208;;;;;;;
71550;SPS30;59367;48.414;9.872;2023-03-23T00:38:38;5.969207764;;5.969207764;;;;;;;
71550;SPS30;59367;48.414;9.872;2023-03-23T00:39:43;6.809294701;;6.809294701;;;;;;;
71550;SPS30;59367;48.414;9.872;2023-03-23T00:40:48;6.68203783;;6.68203783;;;;;;;
71550;SPS30;59367;48.414;9.872;2023-03-23T00:41:54;5.40442276;;5.40442276;;;;;;;
71550;SPS30;59367;48.414;9.872;2023-03-23T00:42:58;5.254684448;;5.254684448;;;;;;;
71550;SPS30;59367;48.414;9.872;2023-03-23T00:44:03;5.230528831;;5.230528831;;;;;;;
71550;SPS30;59367;48.414;9.872;2023-03-23T00:45:08;6.098651886;;6.098651886;;;;;;;
71550;SPS30;59367;48.414;9.872;2023-03-23T00:46:13;6.13410902;;6.13410902;;;;;;;
71550;SPS30;59367;48.414;9.872;2023-03-23T00:47:18;5.261125565;;5.261125565;;;;;;;
71550;SPS30;59367;48.414;9.872;2023-03-23T00:48:23;5.101774693;;5.101774693;;;;;;;
71550;SPS30;59367;48.414;9.872;2023-03-23T00:49:28;5.831573963;;5.831573963;;;;;;;
71550;SPS30;59367;48.414;9.872;2023-03-23T00:50:33;5.506736279;;5.506736279;;;;;;;
71550;SPS30;59367;48.414;9.872;2023-03-23T00:51:38;6.104234695;;6.104234695;;;;;;;
71550;SPS30;59367;48.414;9.872;2023-03-23T00:52:42;6.019196987;;6.019196987;;;;;;;
71550;SPS30;59367;48.414;9.872;2023-03-23T00:53:47;5.673174381;;5.673174381;;;;;;;
71550;SPS30;59367;48.414;9.872;2023-03-23T00:54:52;6.243329525;;6.243329525;;;;;;;
71550;SPS30;59367;48.414;9.872;2023-03-23T00:55:56;7.079636574;;7.079636574;;;;;;;
71550;SPS30;59367;48.414;9.872;2023-03-23T00:57:01;6.491291046;;6.491291046;;;;;;;
71550;SPS30;59367;48.414;9.872;2023-03-23T00:58:06;5.910811424;;5.910811424;;;;;;;
71550;SPS30;59367;48.414;9.872;2023-03-23T00:59:10;5.797632694;;5.797632694;;;;;;;
71550;SPS30;59367;48.414;9.872;2023-03-23T01:00:16;6.109033585;;6.109033585;;;;;;;
71550;SPS30;59367;48.414;9.872;2023-03-23T01:01:21;5.686293602;;5.686293602;;;;;;;
71550;SPS30;59367;48.414;9.872;2023-03-23T01:02:26;5.688886166;;5.688886166;;;;;;;
71550;SPS30;59367;48.414;9.872;2023-03-23T01:03:30;5.551894188;;5.551894188;;;;;;;
71550;SPS30;59367;48.414;9.872;2023-03-23T01:04:37;5.995478153;;5.995478153;;;;;;;
71550;SPS30;59367;48.414;9.872;2023-03-23T01:05:42;5.649591446;;5.649591446;;;;;;;
71550;SPS30;59367;48.414;9.872;2023-03-23T01:06:48;5.114213943;;5.114213943;;;;;;;
71550;SPS30;59367;48.414;9.872;2023-03-23T01:07:53;5.174495697;;5.174495697;;;;;;;
71550;SPS30;59367;48.414;9.872;2023-03-23T01:08:57;6.182411194;;6.182411194;;;;;;;
71550;SPS30;59367;48.414;9.872;2023-03-23T01:10:03;5.938618183;;5.938618183;;;;;;;
71550;SPS30;59367;48.414;9.872;2023-03-23T01:11:09;5.88773489;;5.88773489;;;;;;;
71550;SPS30;59367;48.414;9.872;2023-03-23T01:12:15;5.481703758;;5.481703758;;;;;;;
71550;SPS30;59367;48.414;9.872;2023-03-23T01:13:19;5.808529854;;5.808529854;;;;;;;
71550;SPS30;59367;48.414;9.872;2023-03-23T01:14:24;5.436376095;;5.436376095;;;;;;;
71550;SPS30;59367;48.414;9.872;2023-03-23T01:15:28;5.244187355;;5.244187355;;;;;;;
71550;SPS30;59367;48.414;9.872;2023-03-23T01:16:34;5.386775017;;5.386775017;;;;;;;
71550;SPS30;59367;48.414;9.872;2023-03-23T01:17:38;4.684201717;;4.684201717;;;;;;;
71550;SPS30;59367;48.414;9.872;2023-03-23T01:18:43;5.624283314;;5.624283314;;;;;;;
71550;SPS30;59367;48.414;9.872;2023-03-23T01:19:48;4.931791306;;4.931791306;;;;;;;
71550;SPS30;59367;48.414;9.872;2023-03-23T01:20:52;6.108334064;;6.108334064;;;;;;;
71550;SPS30;59367;48.414;9.872;2023-03-23T01:21:57;5.139429092;;5.139429092;;;;;;;
71550;SPS30;59367;48.414;9.872;2023-03-23T01:23:02;5.226336956;;5.226336956;;;;;;;
71550;SPS30;59367;48.414;9.872;2023-03-23T01:24:07;5.086929321;;5.086929321;;;;;;;
71550;SPS30;59367;48.414;9.872;2023-03-23T01:25:13;4.950609684;;4.950609684;;;;;;;
71550;SPS30;59367;48.414;9.872;2023-03-23T01:26:18;4.96005249;;4.96005249;;;;;;;
71550;SPS30;59367;48.414;9.872;2023-03-23T01:27:24;4.395686626;;4.395686626;;;;;;;
71550;SPS30;59367;48.414;9.872;2023-03-23T01:28:29;4.757720947;;4.757720947;;;;;;;
71550;SPS30;59367;48.414;9.872;2023-03-23T01:29:34;5.128189564;;5.128189564;;;;;;;
71550;SPS30;59367;48.414;9.872;2023-03-23T01:30:39;4.960811138;;4.960811138;;;;;;;
71550;SPS30;59367;48.414;9.872;2023-03-23T01:31:43;4.504032612;;4.504032612;;;;;;;
71550;SPS30;59367;48.414;9.872;2023-03-23T01:32:48;5.183983326;;5.183983326;;;;;;;
71550;SPS30;59367;48.414;9.872;2023-03-23T01:33:53;4.494375706;;4.494375706;;;;;;;
71550;SPS30;59367;48.414;9.872;2023-03-23T01:34:58;4.676562786;;4.676562786;;;;;;;
71550;SPS30;59367;48.414;9.872;2023-03-23T01:36:04;4.522668839;;4.522668839;;;;;;;
71550;SPS30;59367;48.414;9.872;2023-03-23T01:37:12;4.623128891;;4.623128891;;;;;;;
71550;SPS30;59367;48.414;9.872;2023-03-23T01:38:17;4.911515713;;4.911515713;;;;;;;
71550;SPS30;59367;48.414;9.872;2023-03-23T01:39:21;4.290973186;;4.290973186;;;;;;;
71550;SPS30;59367;48.414;9.872;2023-03-23T01:40:26;5.063409328;;5.063409328;;;;;;;
71550;SPS30;59367;48.414;9.872;2023-03-23T01:41:31;5.088133335;;5.088133335;;;;;;;
71550;SPS30;59367;48.414;9.872;2023-03-23T01:42:37;5.098801613;;5.098801613;;;;;;;
71550;SPS30;59367;48.414;9.872;2023-03-23T01:43:55;4.753812313;;4.753812313;;;;;;;
71550;SPS30;59367;48.414;9.872;2023-03-23T01:46:41;5.162807465;;5.162807465;;;;;;;
71550;SPS30;59367;48.414;9.872;2023-03-23T01:47:46;5.183897018;;5.183897018;;;;;;;
71550;SPS30;59367;48.414;9.872;2023-03-23T01:48:53;5.437256813;;5.437256813;;;;;;;
71550;SPS30;59367;48.414;9.872;2023-03-23T01:49:58;6.178386688;;6.178386688;;;;;;;
71550;SPS30;59367;48.414;9.872;2023-03-23T01:51:04;5.13750124;;5.13750124;;;;;;;
71550;SPS30;59367;48.414;9.872;2023-03-23T01:52:13;5.136325359;;5.136325359;;;;;;;
71550;SPS30;59367;48.414;9.872;2023-03-23T01:53:21;4.939482212;;4.939482212;;;;;;;
71550;SPS30;59367;48.414;9.872;2023-03-23T01:54:28;4.865246296;;4.865246296;;;;;;;
71550;SPS30;59367;48.414;9.872;2023-03-23T01:55:33;4.854557514;;4.854557514;;;;;;;
71550;SPS30;59367;48.414;9.872;2023-03-23T01:56:38;6.002536774;;6.002536774;;;;;;;
71550;SPS30;59367;48.414;9.872;2023-03-23T01:57:46;5.031546116;;5.031546116;;;;;;;
71550;SPS30;59367;48.414;9.872;2023-03-23T01:58:51;4.984078407;;4.984078407;;;;;;;
71550;SPS30;59367;48.414;9.872;2023-03-23T01:59:57;5.323491096;;5.323491096;;;;;;;
71550;SPS30;59367;48.414;9.872;2023-03-23T02:01:07;5.171797752;;5.171797752;;;;;;;
71550;SPS30;59367;48.414;9.872;2023-03-23T02:02:15;4.603550911;;4.603550911;;;;;;;
71550;SPS30;59367;48.414;9.872;2023-03-23T02:03:21;5.001997948;;5.001997948;;;;;;;
71550;SPS30;59367;48.414;9.872;2023-03-23T02:04:26;4.983168125;;4.983168125;;;;;;;
71550;SPS30;59367;48.414;9.872;2023-03-23T02:05:32;4.802081585;;4.802081585;;;;;;;
71550;SPS30;59367;48.414;9.872;2023-03-23T02:06:39;5.113554001;;5.113554001;;;;;;;
71550;SPS30;59367;48.414;9.872;2023-03-23T02:07:44;4.763019562;;4.763019562;;;;;;;
71550;SPS30;59367;48.414;9.872;2023-03-23T02:08:50;5.093113422;;5.093113422;;;;;;;
71550;SPS30;59367;48.414;9.872;2023-03-23T02:09:55;4.759188175;;4.759188175;;;;;;;
71550;SPS30;59367;48.414;9.872;2023-03-23T02:11:00;4.961372375;;4.961372375;;;;;;;
71550;SPS30;59367;48.414;9.872;2023-03-23T02:12:10;5.088578701;;5.088578701;;;;;;;
71550;SPS30;59367;48.414;9.872;2023-03-23T02:13:15;4.818906784;;4.818906784;;;;;;;
71550;SPS30;59367;48.414;9.872;2023-03-23T02:14:20;4.870811462;;4.870811462;;;;;;;
71550;SPS30;59367;48.414;9.872;2023-03-23T02:15:27;4.950904846;;4.950904846;;;;;;;
71550;SPS30;59367;48.414;9.872;2023-03-23T02:16:40;5.396643162;;5.396643162;;;;;;;
71550;SPS30;59367;48.414;9.872;2023-03-23T02:17:52;5.17975235;;5.17975235;;;;;;;
71550;SPS30;59367;48.414;9.872;2023-03-23T02:19:07;4.762249947;;4.762249947;;;;;;;
71550;SPS30;59367;48.414;9.872;2023-03-23T02:20:29;4.980576515;;4.980576515;;;;;;;
71550;SPS30;59367;48.414;9.872;2023-03-23T02:21:46;4.727028847;;4.727028847;;;;;;;
71550;SPS30;59367;48.414;9.872;2023-03-23T02:23:10;4.782735825;;4.782735825;;;;;;;
71550;SPS30;59367;48.414;9.872;2023-03-23T02:26:02;5.2304492;;5.2304492;;;;;;;
71550;SPS30;59367;48.414;9.872;2023-03-23T02:27:20;5.182247639;;5.182247639;;;;;;;
71550;SPS30;59367;48.414;9.872;2023-03-23T02:30:46;4.573417187;;4.573417187;;;;;;;
71550;SPS30;59367;48.414;9.872;2023-03-23T02:32:11;4.096427917;;4.096427917;;;;;;;
71550;SPS30;59367;48.414;9.872;2023-03-23T02:33:46;4.824325562;;4.824325562;;;;;;;
71550;SPS30;59367;48.414;9.872;2023-03-23T02:34:57;4.893803596;;4.893803596;;;;;;;
71550;SPS30;59367;48.414;9.872;2023-03-23T02:36:07;4.504380703;;4.504380703;;;;;;;
71550;SPS30;59367;48.414;9.872;2023-03-23T02:37:19;4.870624065;;4.870624065;;;;;;;
71550;SPS30;59367;48.414;9.872;2023-03-23T02:38:31;5.068482399;;5.068482399;;;;;;;
71550;SPS30;59367;48.414;9.872;2023-03-23T02:39:40;4.289927006;;4.289927006;;;;;;;
71550;SPS30;59367;48.414;9.872;2023-03-23T02:40:48;4.491703987;;4.491703987;;;;;;;
71550;SPS30;59367;48.414;9.872;2023-03-23T02:41:56;4.469092846;;4.469092846;;;;;;;
71550;SPS30;59367;48.414;9.872;2023-03-23T02:43:05;4.671926022;;4.671926022;;;;;;;
71550;SPS30;59367;48.414;9.872;2023-03-23T02:44:13;4.886538029;;4.886538029;;;;;;;
71550;SPS30;59367;48.414;9.872;2023-03-23T02:45:20;4.39899683;;4.39899683;;;;;;;
71550;SPS30;59367;48.414;9.872;2023-03-23T02:46:26;5.042257309;;5.042257309;;;;;;;
71550;SPS30;59367;48.414;9.872;2023-03-23T02:47:32;5.04817009;;5.04817009;;;;;;;
71550;SPS30;59367;48.414;9.872;2023-03-23T02:48:40;5.015590191;;5.015590191;;;;;;;
71550;SPS30;59367;48.414;9.872;2023-03-23T02:49:47;5.014378548;;5.014378548;;;;;;;
71550;SPS30;59367;48.414;9.872;2023-03-23T02:50:54;4.9126544;;4.9126544;;;;;;;
71550;SPS30;59367;48.414;9.872;2023-03-23T02:52:01;5.044436932;;5.044436932;;;;;;;
71550;SPS30;59367;48.414;9.872;2023-03-23T02:53:10;4.419155598;;4.419155598;;;;;;;
71550;SPS30;59367;48.414;9.872;2023-03-23T02:54:18;4.959906578;;4.959906578;;;;;;;
71550;SPS30;59367;48.414;9.872;2023-03-23T02:55:23;4.422985554;;4.422985554;;;;;;;
71550;SPS30;59367;48.414;9.872;2023-03-23T02:56:30;4.125286579;;4.125286579;;;;;;;
71550;SPS30;59367;48.414;9.872;2023-03-23T02:57:37;4.236922264;;4.236922264;;;;;;;
71550;SPS30;59367;48.414;9.872;2023-03-23T02:58:42;4.578798771;;4.578798771;;;;;;;
71550;SPS30;59367;48.414;9.872;2023-03-23T02:59:47;4.992750168;;4.992750168;;;;;;;
71550;SPS30;59367;48.414;9.872;2023-03-23T03:00:53;4.685260773;;4.685260773;;;;;;;
71550;SPS30;59367;48.414;9.872;2023-03-23T03:02:09;4.946897507;;4.946897507;;;;;;;
71550;SPS30;59367;48.414;9.872;2023-03-23T03:03:17;4.950043678;;4.950043678;;;;;;;
71550;SPS30;59367;48.414;9.872;2023-03-23T03:04:26;5.214385986;;5.214385986;;;;;;;
71550;SPS30;59367;48.414;9.872;2023-03-23T03:05:35;5.064124107;;5.064124107;;;;;;;
71550;SPS30;59367;48.414;9.872;2023-03-23T03:06:48;4.603744984;;4.603744984;;;;;;;
71550;SPS30;59367;48.414;9.872;2023-03-23T03:08:06;5.150303364;;5.150303364;;;;;;;
71550;SPS30;59367;48.414;9.872;2023-03-23T03:09:22;4.185054302;;4.185054302;;;;;;;
71550;SPS30;59367;48.414;9.872;2023-03-23T03:10:34;5.27738905;;5.27738905;;;;;;;
71550;SPS30;59367;48.414;9.872;2023-03-23T03:11:45;3.842975616;;3.842975616;;;;;;;
71550;SPS30;59367;48.414;9.872;2023-03-23T03:12:55;4.05134964;;4.05134964;;;;;;;
71550;SPS30;59367;48.414;9.872;2023-03-23T03:14:17;4.492909431;;4.492909431;;;;;;;
71550;SPS30;59367;48.414;9.872;2023-03-23T03:15:36;3.572677612;;3.572677612;;;;;;;
71550;SPS30;59367;48.414;9.872;2023-03-23T03:17:02;4.319201469;;4.319201469;;;;;;;
71550;SPS30;59367;48.414;9.872;2023-03-23T03:18:27;4.008306503;;4.008306503;;;;;;;
71550;SPS30;59367;48.414;9.872;2023-03-23T03:19:40;4.102984905;;4.102984905;;;;;;;
71550;SPS30;59367;48.414;9.872;2023-03-23T03:20:57;4.028400421;;4.028400421;;;;;;;
71550;SPS30;59367;48.414;9.872;2023-03-23T03:22:07;3.986205339;;3.986205339;;;;;;;
71550;SPS30;59367;48.414;9.872;2023-03-23T03:23:13;3.725930691;;3.725930691;;;;;;;
71550;SPS30;59367;48.414;9.872;2023-03-23T03:24:19;3.897325039;;3.897325039;;;;;;;
71550;SPS30;59367;48.414;9.872;2023-03-23T03:25:26;3.820981264;;3.820981264;;;;;;;
71550;SPS30;59367;48.414;9.872;2023-03-23T03:26:32;4.240992069;;4.240992069;;;;;;;
71550;SPS30;59367;48.414;9.872;2023-03-23T03:27:38;3.443234444;;3.443234444;;;;;;;
71550;SPS30;59367;48.414;9.872;2023-03-23T03:28:46;4.037867546;;4.037867546;;;;;;;
71550;SPS30;59367;48.414;9.872;2023-03-23T03:29:54;4.126531601;;4.126531601;;;;;;;
71550;SPS30;59367;48.414;9.872;2023-03-23T03:31:02;3.975788355;;3.975788355;;;;;;;
71550;SPS30;59367;48.414;9.872;2023-03-23T03:32:10;4.253455162;;4.253455162;;;;;;;
71550;SPS30;59367;48.414;9.872;2023-03-23T03:33:17;3.8149333;;3.8149333;;;;;;;
71550;SPS30;59367;48.414;9.872;2023-03-23T03:34:23;3.855960131;;3.855960131;;;;;;;
71550;SPS30;59367;48.414;9.872;2023-03-23T03:35:28;4.237958908;;4.237958908;;;;;;;
71550;SPS30;59367;48.414;9.872;2023-03-23T03:36:34;4.573428154;;4.573428154;;;;;;;
71550;SPS30;59367;48.414;9.872;2023-03-23T03:37:39;4.737514496;;4.737514496;;;;;;;
71550;SPS30;59367;48.414;9.872;2023-03-23T03:38:47;4.35102272;;4.35102272;;;;;;;
71550;SPS30;59367;48.414;9.872;2023-03-23T03:39:52;4.22215271;;4.22215271;;;;;;;
71550;SPS30;59367;48.414;9.872;2023-03-23T03:40:57;4.790216923;;4.790216923;;;;;;;
71550;SPS30;59367;48.414;9.872;2023-03-23T03:42:02;3.969093561;;3.969093561;;;;;;;
71550;SPS30;59367;48.414;9.872;2023-03-23T03:43:08;4.190808296;;4.190808296;;;;;;;
71550;SPS30;59367;48.414;9.872;2023-03-23T03:44:13;4.439361095;;4.439361095;;;;;;;
71550;SPS30;59367;48.414;9.872;2023-03-23T03:45:18;4.235029221;;4.235029221;;;;;;;
71550;SPS30;59367;48.414;9.872;2023-03-23T03:46:23;4.19769001;;4.19769001;;;;;;;
71550;SPS30;59367;48.414;9.872;2023-03-23T03:47:28;3.576907873;;3.576907873;;;;;;;
71550;SPS30;59367;48.414;9.872;2023-03-23T03:48:33;3.830367327;;3.830367327;;;;;;;
71550;SPS30;59367;48.414;9.872;2023-03-23T03:49:38;4.282260418;;4.282260418;;;;;;;
71550;SPS30;59367;48.414;9.872;2023-03-23T03:50:43;3.42966032;;3.42966032;;;;;;;
71550;SPS30;59367;48.414;9.872;2023-03-23T03:51:48;3.946113825;;3.946113825;;;;;;;
71550;SPS30;59367;48.414;9.872;2023-03-23T03:52:53;4.139344215;;4.139344215;;;;;;;
71550;SPS30;59367;48.414;9.872;2023-03-23T03:53:58;4.558858395;;4.558858395;;;;;;;
71550;SPS30;59367;48.414;9.872;2023-03-23T03:55:04;3.972082376;;3.972082376;;;;;;;
71550;SPS30;59367;48.414;9.872;2023-03-23T03:56:10;4.152915955;;4.152915955;;;;;;;
71550;SPS30;59367;48.414;9.872;2023-03-23T03:57:15;4.400057316;;4.400057316;;;;;;;
71550;SPS30;59367;48.414;9.872;2023-03-23T03:58:20;3.879931688;;3.879931688;;;;;;;
71550;SPS30;59367;48.414;9.872;2023-03-23T03:59:25;4.023692131;;4.023692131;;;;;;;
71550;SPS30;59367;48.414;9.872;2023-03-23T04:00:29;3.951736927;;3.951736927;;;;;;;
71550;SPS30;59367;48.414;9.872;2023-03-23T04:01:34;4.139834881;;4.139834881;;;;;;;
71550;SPS30;59367;48.414;9.872;2023-03-23T04:02:40;4.440092564;;4.440092564;;;;;;;
71550;SPS30;59367;48.414;9.872;2023-03-23T04:03:47;3.76341033;;3.76341033;;;;;;;
71550;SPS30;59367;48.414;9.872;2023-03-23T04:04:52;4.33652401;;4.33652401;;;;;;;
71550;SPS30;59367;48.414;9.872;2023-03-23T04:05:57;3.560511589;;3.560511589;;;;;;;
71550;SPS30;59367;48.414;9.872;2023-03-23T04:07:01;3.872250795;;3.872250795;;;;;;;
71550;SPS30;59367;48.414;9.872;2023-03-23T04:08:06;4.174129486;;4.174129486;;;;;;;
71550;SPS30;59367;48.414;9.872;2023-03-23T04:09:11;4.040671349;;4.040671349;;;;;;;
71550;SPS30;59367;48.414;9.872;2023-03-23T04:10:17;3.554403305;;3.554403305;;;;;;;
71550;SPS30;59367;48.414;9.872;2023-03-23T04:11:22;3.512936354;;3.512936354;;;;;;;
71550;SPS30;59367;48.414;9.872;2023-03-23T04:12:27;4.198004246;;4.198004246;;;;;;;
71550;SPS30;59367;48.414;9.872;2023-03-23T04:13:32;3.655416489;;3.655416489;;;;;;;
71550;SPS30;59367;48.414;9.872;2023-03-23T04:14:37;3.706790924;;3.706790924;;;;;;;
71550;SPS30;59367;48.414;9.872;2023-03-23T04:15:42;3.694406748;;3.694406748;;;;;;;
71550;SPS30;59367;48.414;9.872;2023-03-23T04:16:48;3.673057079;;3.673057079;;;;;;;
71550;SPS30;59367;48.414;9.872;2023-03-23T04:17:53;3.244184017;;3.244184017;;;;;;;
71550;SPS30;59367;48.414;9.872;2023-03-23T04:18:58;4.22761488;;4.22761488;;;;;;;
71550;SPS30;59367;48.414;9.872;2023-03-23T04:20:03;4.125888348;;4.125888348;;;;;;;
71550;SPS30;59367;48.414;9.872;2023-03-23T04:21:09;3.868390799;;3.868390799;;;;;;;
71550;SPS30;59367;48.414;9.872;2023-03-23T04:22:15;4.227492809;;4.227492809;;;;;;;
71550;SPS30;59367;48.414;9.872;2023-03-23T04:23:20;4.364147663;;4.364147663;;;;;;;
71550;SPS30;59367;48.414;9.872;2023-03-23T04:24:25;4.340956211;;4.340956211;;;;;;;
71550;SPS30;59367;48.414;9.872;2023-03-23T04:25:30;3.748059034;;3.748059034;;;;;;;
71550;SPS30;59367;48.414;9.872;2023-03-23T04:26:34;4.776733875;;4.776733875;;;;;;;
71550;SPS30;59367;48.414;9.872;2023-03-23T04:27:39;4.325891972;;4.325891972;;;;;;;
71550;SPS30;59367;48.414;9.872;2023-03-23T04:28:45;4.717437267;;4.717437267;;;;;;;
71550;SPS30;59367;48.414;9.872;2023-03-23T04:29:50;4.857514858;;4.857514858;;;;;;;
71550;SPS30;59367;48.414;9.872;2023-03-23T04:30:55;3.84645462;;3.84645462;;;;;;;
71550;SPS30;59367;48.414;9.872;2023-03-23T04:32:00;5.029858589;;5.029858589;;;;;;;
71550;SPS30;59367;48.414;9.872;2023-03-23T04:33:05;4.912448883;;4.912448883;;;;;;;
71550;SPS30;59367;48.414;9.872;2023-03-23T04:34:09;4.451314926;;4.451314926;;;;;;;
71550;SPS30;59367;48.414;9.872;2023-03-23T04:35:14;4.30462265;;4.30462265;;;;;;;
71550;SPS30;59367;48.414;9.872;2023-03-23T04:36:20;4.847293854;;4.847293854;;;;;;;
71550;SPS30;59367;48.414;9.872;2023-03-23T04:37:25;4.943626404;;4.943626404;;;;;;;
71550;SPS30;59367;48.414;9.872;2023-03-23T04:38:30;4.76705122;;4.76705122;;;;;;;
71550;SPS30;59367;48.414;9.872;2023-03-23T04:39:35;4.310129166;;4.310129166;;;;;;;
71550;SPS30;59367;48.414;9.872;2023-03-23T04:40:40;4.520874977;;4.520874977;;;;;;;
71550;SPS30;59367;48.414;9.872;2023-03-23T04:41:46;4.468139172;;4.468139172;;;;;;;
71550;SPS30;59367;48.414;9.872;2023-03-23T04:42:50;4.168228149;;4.168228149;;;;;;;
71550;SPS30;59367;48.414;9.872;2023-03-23T04:43:55;3.909073114;;3.909073114;;;;;;;
71550;SPS30;59367;48.414;9.872;2023-03-23T04:45:00;3.894022703;;3.894022703;;;;;;;
71550;SPS30;59367;48.414;9.872;2023-03-23T04:46:06;4.108849049;;4.108849049;;;;;;;
71550;SPS30;59367;48.414;9.872;2023-03-23T04:47:11;4.666808128;;4.666808128;;;;;;;
71550;SPS30;59367;48.414;9.872;2023-03-23T04:48:16;5.249752998;;5.249752998;;;;;;;
71550;SPS30;59367;48.414;9.872;2023-03-23T04:49:21;5.050049305;;5.050049305;;;;;;;
71550;SPS30;59367;48.414;9.872;2023-03-23T04:50:27;4.040249825;;4.040249825;;;;;;;
71550;SPS30;59367;48.414;9.872;2023-03-23T04:51:33;4.271285534;;4.271285534;;;;;;;
71550;SPS30;59367;48.414;9.872;2023-03-23T04:52:38;4.790977955;;4.790977955;;;;;;;
71550;SPS30;59367;48.414;9.872;2023-03-23T04:53:43;4.869414806;;4.869414806;;;;;;;
71550;SPS30;59367;48.414;9.872;2023-03-23T04:54:48;4.113703728;;4.113703728;;;;;;;
71550;SPS30;59367;48.414;9.872;2023-03-23T04:55:53;4.618402481;;4.618402481;;;;;;;
71550;SPS30;59367;48.414;9.872;2023-03-23T04:56:58;4.334197521;;4.334197521;;;;;;;
71550;SPS30;59367;48.414;9.872;2023-03-23T04:58:03;4.455152988;;4.455152988;;;;;;;
71550;SPS30;59367;48.414;9.872;2023-03-23T04:59:09;4.211998463;;4.211998463;;;;;;;
71550;SPS30;59367;48.414;9.872;2023-03-23T05:00:17;4.043009281;;4.043009281;;;;;;;
71550;SPS30;59367;48.414;9.872;2023-03-23T05:01:23;4.822192669;;4.822192669;;;;;;;
71550;SPS30;59367;48.414;9.872;2023-03-23T05:02:28;3.747112751;;3.747112751;;;;;;;
71550;SPS30;59367;48.414;9.872;2023-03-23T05:03:33;3.767626047;;3.767626047;;;;;;;
71550;SPS30;59367;48.414;9.872;2023-03-23T05:04:38;3.681464434;;3.681464434;;;;;;;
71550;SPS30;59367;48.414;9.872;2023-03-23T05:05:43;4.101306438;;4.101306438;;;;;;;
71550;SPS30;59367;48.414;9.872;2023-03-23T05:06:48;3.893266916;;3.893266916;;;;;;;
71550;SPS30;59367;48.414;9.872;2023-03-23T05:07:53;4.377235413;;4.377235413;;;;;;;
71550;SPS30;59367;48.414;9.872;2023-03-23T05:08:58;3.994119883;;3.994119883;;;;;;;
71550;SPS30;59367;48.414;9.872;2023-03-23T05:10:03;4.033913612;;4.033913612;;;;;;;
71550;SPS30;59367;48.414;9.872;2023-03-23T05:11:09;3.856477022;;3.856477022;;;;;;;
71550;SPS30;59367;48.414;9.872;2023-03-23T05:12:14;3.746411085;;3.746411085;;;;;;;
71550;SPS30;59367;48.414;9.872;2023-03-23T05:13:19;3.540379524;;3.540379524;;;;;;;
71550;SPS30;59367;48.414;9.872;2023-03-23T05:14:24;4.399599552;;4.399599552;;;;;;;
71550;SPS30;59367;48.414;9.872;2023-03-23T05:15:29;3.86678791;;3.86678791;;;;;;;
71550;SPS30;59367;48.414;9.872;2023-03-23T05:16:34;4.354210854;;4.354210854;;;;;;;
71550;SPS30;59367;48.414;9.872;2023-03-23T05:17:39;3.946769476;;3.946769476;;;;;;;
71550;SPS30;59367;48.414;9.872;2023-03-23T05:18:45;4.352060318;;4.352060318;;;;;;;
71550;SPS30;59367;48.414;9.872;2023-03-23T05:19:49;3.901337147;;3.901337147;;;;;;;
71550;SPS30;59367;48.414;9.872;2023-03-23T05:20:54;4.352403641;;4.352403641;;;;;;;
71550;SPS30;59367;48.414;9.872;2023-03-23T05:22:01;4.088108063;;4.088108063;;;;;;;
71550;SPS30;59367;48.414;9.872;2023-03-23T05:23:07;4.16039753;;4.16039753;;;;;;;
71550;SPS30;59367;48.414;9.872;2023-03-23T05:24:12;4.328715801;;4.328715801;;;;;;;
71550;SPS30;59367;48.414;9.872;2023-03-23T05:25:17;3.895795822;;3.895795822;;;;;;;